sensor_id;sensor_type;location;lat;lon;timestamp;P1;durP1;ratioP1;P2;durP2;ratioP2
11537;SDS011;50159;49.426;11.182;2023-07-20T00:00:06;3.07;;;2.93;;
11537;SDS011;50159;49.426;11.182;2023-07-20T00:02:33;3.77;;;3.57;;
11537;SDS011;50159;49.426;11.182;2023-07-20T00:05:00;3.00;;;2.90;;
11537;SDS011;50159;49.426;11.182;2023-07-20T00:07:27;2.43;;;2.33;;
11537;SDS011;50159;49.426;11.182;2023-07-20T00:09:54;3.77;;;3.47;;
11537;SDS011;50159;49.426;11.182;2023-07-20T00:12:21;3.50;;;3.30;;
11537;SDS011;50159;49.426;11.182;2023-07-20T00:14:48;3.63;;;3.33;;
11537;SDS011;50159;49.426;11.182;2023-07-20T00:17:15;2.87;;;2.73;;
11537;SDS011;50159;49.426;11.182;2023-07-20T00:19:42;3.83;;;3.53;;
11537;SDS011;50159;49.426;11.182;2023-07-20T00:22:08;3.27;;;2.97;;
11537;SDS011;50159;49.426;11.182;2023-07-20T00:24:35;3.20;;;3.00;;
11537;SDS011;50159;49.426;11.182;2023-07-20T00:27:02;4.03;;;3.30;;
11537;SDS011;50159;49.426;11.182;2023-07-20T00:29:29;3.20;;;3.00;;
11537;SDS011;50159;49.426;11.182;2023-07-20T00:31:56;3.57;;;3.27;;
11537;SDS011;50159;49.426;11.182;2023-07-20T00:34:24;3.67;;;3.40;;
11537;SDS011;50159;49.426;11.182;2023-07-20T00:36:51;3.77;;;3.47;;
11537;SDS011;50159;49.426;11.182;2023-07-20T00:39:18;3.27;;;3.07;;
11537;SDS011;50159;49.426;11.182;2023-07-20T00:41:45;3.47;;;2.87;;
11537;SDS011;50159;49.426;11.182;2023-07-20T00:44:11;3.17;;;2.97;;
11537;SDS011;50159;49.426;11.182;2023-07-20T00:46:38;3.43;;;3.23;;
11537;SDS011;50159;49.426;11.182;2023-07-20T00:49:08;3.73;;;3.40;;
11537;SDS011;50159;49.426;11.182;2023-07-20T00:51:34;2.87;;;2.77;;
11537;SDS011;50159;49.426;11.182;2023-07-20T00:54:01;3.07;;;2.97;;
11537;SDS011;50159;49.426;11.182;2023-07-20T00:56:29;3.30;;;3.13;;
11537;SDS011;50159;49.426;11.182;2023-07-20T00:58:56;3.70;;;3.33;;
11537;SDS011;50159;49.426;11.182;2023-07-20T01:01:23;3.60;;;3.10;;
11537;SDS011;50159;49.426;11.182;2023-07-20T01:03:50;3.50;;;3.30;;
11537;SDS011;50159;49.426;11.182;2023-07-20T01:06:22;3.20;;;2.90;;
11537;SDS011;50159;49.426;11.182;2023-07-20T01:09:17;3.90;;;3.60;;
11537;SDS011;50159;49.426;11.182;2023-07-20T01:11:59;3.37;;;3.07;;
11537;SDS011;50159;49.426;11.182;2023-07-20T01:14:34;3.13;;;2.90;;
11537;SDS011;50159;49.426;11.182;2023-07-20T01:17:02;2.87;;;2.77;;
11537;SDS011;50159;49.426;11.182;2023-07-20T01:19:29;3.30;;;3.10;;
11537;SDS011;50159;49.426;11.182;2023-07-20T01:21:58;3.60;;;3.30;;
11537;SDS011;50159;49.426;11.182;2023-07-20T01:33:56;3.70;;;3.50;;
11537;SDS011;50159;49.426;11.182;2023-07-20T01:36:28;3.37;;;3.17;;
11537;SDS011;50159;49.426;11.182;2023-07-20T01:38:58;4.60;;;3.43;;
11537;SDS011;50159;49.426;11.182;2023-07-20T01:41:26;3.77;;;3.47;;
11537;SDS011;50159;49.426;11.182;2023-07-20T01:43:53;3.67;;;3.47;;
11537;SDS011;50159;49.426;11.182;2023-07-20T01:46:25;3.73;;;3.40;;
11537;SDS011;50159;49.426;11.182;2023-07-20T01:48:54;3.63;;;3.30;;
11537;SDS011;50159;49.426;11.182;2023-07-20T01:51:21;3.30;;;3.10;;
11537;SDS011;50159;49.426;11.182;2023-07-20T01:53:48;3.00;;;2.80;;
11537;SDS011;50159;49.426;11.182;2023-07-20T01:56:15;3.40;;;3.20;;
11537;SDS011;50159;49.426;11.182;2023-07-20T01:58:42;3.03;;;2.83;;
11537;SDS011;50159;49.426;11.182;2023-07-20T02:01:09;3.13;;;3.00;;
11537;SDS011;50159;49.426;11.182;2023-07-20T02:03:36;3.50;;;3.20;;
11537;SDS011;50159;49.426;11.182;2023-07-20T02:06:03;3.13;;;2.97;;
11537;SDS011;50159;49.426;11.182;2023-07-20T02:08:30;3.30;;;3.00;;
11537;SDS011;50159;49.426;11.182;2023-07-20T02:10:57;2.97;;;2.83;;
11537;SDS011;50159;49.426;11.182;2023-07-20T02:13:23;4.03;;;3.63;;
11537;SDS011;50159;49.426;11.182;2023-07-20T02:15:50;3.00;;;2.80;;
11537;SDS011;50159;49.426;11.182;2023-07-20T02:18:17;4.80;;;3.20;;
11537;SDS011;50159;49.426;11.182;2023-07-20T02:20:44;3.23;;;3.03;;
11537;SDS011;50159;49.426;11.182;2023-07-20T02:23:11;3.47;;;3.27;;
11537;SDS011;50159;49.426;11.182;2023-07-20T02:25:38;3.43;;;3.23;;
11537;SDS011;50159;49.426;11.182;2023-07-20T02:28:07;3.10;;;2.83;;
11537;SDS011;50159;49.426;11.182;2023-07-20T02:30:37;3.00;;;2.80;;
11537;SDS011;50159;49.426;11.182;2023-07-20T02:33:05;3.30;;;3.10;;
11537;SDS011;50159;49.426;11.182;2023-07-20T02:35:33;3.43;;;3.20;;
11537;SDS011;50159;49.426;11.182;2023-07-20T02:38:00;3.40;;;3.20;;
11537;SDS011;50159;49.426;11.182;2023-07-20T02:40:27;3.77;;;3.40;;
11537;SDS011;50159;49.426;11.182;2023-07-20T02:42:54;3.40;;;3.20;;
11537;SDS011;50159;49.426;11.182;2023-07-20T02:45:21;3.23;;;3.03;;
11537;SDS011;50159;49.426;11.182;2023-07-20T02:47:47;3.43;;;2.97;;
11537;SDS011;50159;49.426;11.182;2023-07-20T02:50:14;3.77;;;3.47;;
11537;SDS011;50159;49.426;11.182;2023-07-20T02:52:41;3.37;;;3.17;;
11537;SDS011;50159;49.426;11.182;2023-07-20T02:55:08;3.43;;;3.30;;
11537;SDS011;50159;49.426;11.182;2023-07-20T02:57:35;3.33;;;2.90;;
11537;SDS011;50159;49.426;11.182;2023-07-20T03:00:03;3.47;;;3.27;;
11537;SDS011;50159;49.426;11.182;2023-07-20T03:02:32;3.40;;;3.20;;
11537;SDS011;50159;49.426;11.182;2023-07-20T03:04:59;3.93;;;3.60;;
11537;SDS011;50159;49.426;11.182;2023-07-20T03:07:28;3.20;;;3.10;;
11537;SDS011;50159;49.426;11.182;2023-07-20T03:09:55;3.30;;;3.10;;
11537;SDS011;50159;49.426;11.182;2023-07-20T03:12:22;3.07;;;2.97;;
11537;SDS011;50159;49.426;11.182;2023-07-20T03:14:50;3.33;;;3.03;;
11537;SDS011;50159;49.426;11.182;2023-07-20T03:17:17;3.53;;;3.33;;
11537;SDS011;50159;49.426;11.182;2023-07-20T03:19:44;3.20;;;2.90;;
11537;SDS011;50159;49.426;11.182;2023-07-20T03:22:11;3.30;;;3.00;;
11537;SDS011;50159;49.426;11.182;2023-07-20T03:24:38;4.47;;;3.30;;
11537;SDS011;50159;49.426;11.182;2023-07-20T03:27:04;5.40;;;3.17;;
11537;SDS011;50159;49.426;11.182;2023-07-20T03:29:32;3.80;;;3.37;;
11537;SDS011;50159;49.426;11.182;2023-07-20T03:31:59;4.73;;;3.50;;
11537;SDS011;50159;49.426;11.182;2023-07-20T03:34:26;3.83;;;3.00;;
11537;SDS011;50159;49.426;11.182;2023-07-20T03:36:53;3.17;;;2.97;;
11537;SDS011;50159;49.426;11.182;2023-07-20T03:39:20;3.57;;;3.37;;
11537;SDS011;50159;49.426;11.182;2023-07-20T03:41:48;2.80;;;2.70;;
11537;SDS011;50159;49.426;11.182;2023-07-20T03:44:15;3.10;;;2.90;;
11537;SDS011;50159;49.426;11.182;2023-07-20T03:46:43;3.27;;;3.07;;
11537;SDS011;50159;49.426;11.182;2023-07-20T03:49:10;2.70;;;2.60;;
11537;SDS011;50159;49.426;11.182;2023-07-20T03:51:37;3.13;;;2.93;;
11537;SDS011;50159;49.426;11.182;2023-07-20T03:54:03;3.10;;;2.90;;
11537;SDS011;50159;49.426;11.182;2023-07-20T03:56:31;3.50;;;3.30;;
11537;SDS011;50159;49.426;11.182;2023-07-20T03:59:01;3.27;;;3.17;;
11537;SDS011;50159;49.426;11.182;2023-07-20T04:01:28;3.47;;;3.20;;
11537;SDS011;50159;49.426;11.182;2023-07-20T04:03:55;3.03;;;2.83;;
11537;SDS011;50159;49.426;11.182;2023-07-20T04:06:22;3.43;;;3.30;;
11537;SDS011;50159;49.426;11.182;2023-07-20T04:08:49;3.00;;;2.90;;
11537;SDS011;50159;49.426;11.182;2023-07-20T04:11:16;3.43;;;3.23;;
11537;SDS011;50159;49.426;11.182;2023-07-20T04:13:43;3.17;;;2.97;;
11537;SDS011;50159;49.426;11.182;2023-07-20T04:16:10;3.67;;;3.43;;
11537;SDS011;50159;49.426;11.182;2023-07-20T04:18:37;4.00;;;3.30;;
11537;SDS011;50159;49.426;11.182;2023-07-20T04:21:04;3.47;;;3.10;;
11537;SDS011;50159;49.426;11.182;2023-07-20T04:23:31;2.60;;;2.50;;
11537;SDS011;50159;49.426;11.182;2023-07-20T04:25:57;3.40;;;3.10;;
11537;SDS011;50159;49.426;11.182;2023-07-20T04:28:24;3.00;;;2.80;;
11537;SDS011;50159;49.426;11.182;2023-07-20T04:30:51;3.30;;;3.20;;
11537;SDS011;50159;49.426;11.182;2023-07-20T04:33:19;3.33;;;3.13;;
11537;SDS011;50159;49.426;11.182;2023-07-20T04:35:50;3.40;;;3.10;;
11537;SDS011;50159;49.426;11.182;2023-07-20T04:38:19;3.50;;;3.30;;
11537;SDS011;50159;49.426;11.182;2023-07-20T04:40:48;3.47;;;3.17;;
11537;SDS011;50159;49.426;11.182;2023-07-20T04:43:16;2.77;;;2.67;;
11537;SDS011;50159;49.426;11.182;2023-07-20T04:45:44;3.67;;;3.13;;
11537;SDS011;50159;49.426;11.182;2023-07-20T04:48:12;3.50;;;3.30;;
11537;SDS011;50159;49.426;11.182;2023-07-20T04:50:43;3.47;;;3.23;;
11537;SDS011;50159;49.426;11.182;2023-07-20T04:53:12;3.10;;;2.90;;
11537;SDS011;50159;49.426;11.182;2023-07-20T04:55:39;3.47;;;3.20;;
11537;SDS011;50159;49.426;11.182;2023-07-20T04:58:13;3.23;;;2.93;;
11537;SDS011;50159;49.426;11.182;2023-07-20T05:00:39;3.50;;;3.00;;
11537;SDS011;50159;49.426;11.182;2023-07-20T05:03:06;3.00;;;2.90;;
11537;SDS011;50159;49.426;11.182;2023-07-20T05:05:34;3.13;;;2.93;;
11537;SDS011;50159;49.426;11.182;2023-07-20T05:08:00;3.30;;;3.20;;
11537;SDS011;50159;49.426;11.182;2023-07-20T05:10:27;4.13;;;3.17;;
11537;SDS011;50159;49.426;11.182;2023-07-20T05:12:54;3.00;;;2.90;;
11537;SDS011;50159;49.426;11.182;2023-07-20T05:15:21;3.00;;;2.90;;
11537;SDS011;50159;49.426;11.182;2023-07-20T05:17:48;3.03;;;2.93;;
11537;SDS011;50159;49.426;11.182;2023-07-20T05:20:15;2.90;;;2.80;;
11537;SDS011;50159;49.426;11.182;2023-07-20T05:22:42;3.83;;;3.33;;
11537;SDS011;50159;49.426;11.182;2023-07-20T05:25:10;3.27;;;3.07;;
11537;SDS011;50159;49.426;11.182;2023-07-20T05:27:37;3.40;;;3.20;;
11537;SDS011;50159;49.426;11.182;2023-07-20T05:30:05;3.43;;;2.97;;
11537;SDS011;50159;49.426;11.182;2023-07-20T05:32:33;2.77;;;2.57;;
11537;SDS011;50159;49.426;11.182;2023-07-20T05:35:00;3.00;;;2.90;;
11537;SDS011;50159;49.426;11.182;2023-07-20T05:37:27;2.50;;;2.40;;
11537;SDS011;50159;49.426;11.182;2023-07-20T05:39:54;2.60;;;2.50;;
11537;SDS011;50159;49.426;11.182;2023-07-20T05:42:21;3.07;;;2.90;;
11537;SDS011;50159;49.426;11.182;2023-07-20T05:44:47;2.70;;;2.50;;
11537;SDS011;50159;49.426;11.182;2023-07-20T05:47:16;3.07;;;2.87;;
11537;SDS011;50159;49.426;11.182;2023-07-20T05:49:42;4.43;;;3.30;;
11537;SDS011;50159;49.426;11.182;2023-07-20T05:52:09;3.07;;;2.87;;
11537;SDS011;50159;49.426;11.182;2023-07-20T05:54:36;3.00;;;2.87;;
11537;SDS011;50159;49.426;11.182;2023-07-20T05:57:03;2.90;;;2.70;;
11537;SDS011;50159;49.426;11.182;2023-07-20T05:59:30;2.80;;;2.70;;
11537;SDS011;50159;49.426;11.182;2023-07-20T06:01:57;2.73;;;2.57;;
11537;SDS011;50159;49.426;11.182;2023-07-20T06:04:25;3.13;;;2.93;;
11537;SDS011;50159;49.426;11.182;2023-07-20T06:06:51;2.53;;;2.50;;
11537;SDS011;50159;49.426;11.182;2023-07-20T06:09:18;2.80;;;2.60;;
11537;SDS011;50159;49.426;11.182;2023-07-20T06:11:45;2.50;;;2.37;;
11537;SDS011;50159;49.426;11.182;2023-07-20T06:14:12;2.73;;;2.60;;
11537;SDS011;50159;49.426;11.182;2023-07-20T06:16:39;2.97;;;2.77;;
11537;SDS011;50159;49.426;11.182;2023-07-20T06:19:06;2.60;;;2.50;;
11537;SDS011;50159;49.426;11.182;2023-07-20T06:21:33;6.93;;;3.07;;
11537;SDS011;50159;49.426;11.182;2023-07-20T06:24:00;3.47;;;2.60;;
11537;SDS011;50159;49.426;11.182;2023-07-20T06:26:26;2.87;;;2.67;;
11537;SDS011;50159;49.426;11.182;2023-07-20T06:28:54;3.40;;;3.00;;
11537;SDS011;50159;49.426;11.182;2023-07-20T06:31:22;9.43;;;3.70;;
11537;SDS011;50159;49.426;11.182;2023-07-20T06:33:49;3.47;;;3.20;;
11537;SDS011;50159;49.426;11.182;2023-07-20T06:36:17;5.20;;;3.03;;
11537;SDS011;50159;49.426;11.182;2023-07-20T06:38:44;4.73;;;2.80;;
11537;SDS011;50159;49.426;11.182;2023-07-20T06:41:31;4.77;;;3.20;;
11537;SDS011;50159;49.426;11.182;2023-07-20T06:44:01;2.43;;;2.33;;
11537;SDS011;50159;49.426;11.182;2023-07-20T06:46:29;3.87;;;2.57;;
11537;SDS011;50159;49.426;11.182;2023-07-20T06:48:56;3.30;;;2.80;;
11537;SDS011;50159;49.426;11.182;2023-07-20T06:51:26;2.83;;;2.70;;
11537;SDS011;50159;49.426;11.182;2023-07-20T06:53:53;2.70;;;2.60;;
11537;SDS011;50159;49.426;11.182;2023-07-20T06:56:20;2.43;;;2.33;;
11537;SDS011;50159;49.426;11.182;2023-07-20T06:58:51;2.43;;;2.33;;
11537;SDS011;50159;49.426;11.182;2023-07-20T07:01:17;2.63;;;2.53;;
11537;SDS011;50159;49.426;11.182;2023-07-20T07:03:47;2.73;;;2.10;;
11537;SDS011;50159;49.426;11.182;2023-07-20T07:06:19;2.30;;;2.20;;
11537;SDS011;50159;49.426;11.182;2023-07-20T07:08:48;2.97;;;2.23;;
11537;SDS011;50159;49.426;11.182;2023-07-20T07:11:15;2.53;;;2.33;;
11537;SDS011;50159;49.426;11.182;2023-07-20T07:13:42;2.30;;;2.20;;
11537;SDS011;50159;49.426;11.182;2023-07-20T07:16:08;2.60;;;2.50;;
11537;SDS011;50159;49.426;11.182;2023-07-20T07:18:35;2.90;;;2.23;;
11537;SDS011;50159;49.426;11.182;2023-07-20T07:21:02;2.47;;;2.37;;
11537;SDS011;50159;49.426;11.182;2023-07-20T07:23:29;2.73;;;2.53;;
11537;SDS011;50159;49.426;11.182;2023-07-20T07:25:56;2.60;;;2.50;;
11537;SDS011;50159;49.426;11.182;2023-07-20T07:28:23;2.67;;;2.47;;
11537;SDS011;50159;49.426;11.182;2023-07-20T07:30:50;2.90;;;2.67;;
11537;SDS011;50159;49.426;11.182;2023-07-20T07:33:17;2.70;;;2.50;;
11537;SDS011;50159;49.426;11.182;2023-07-20T07:35:43;2.50;;;2.40;;
11537;SDS011;50159;49.426;11.182;2023-07-20T07:38:10;2.40;;;2.30;;
11537;SDS011;50159;49.426;11.182;2023-07-20T07:40:57;2.30;;;2.20;;
11537;SDS011;50159;49.426;11.182;2023-07-20T07:43:25;2.20;;;2.10;;
11537;SDS011;50159;49.426;11.182;2023-07-20T07:45:53;2.50;;;2.20;;
11537;SDS011;50159;49.426;11.182;2023-07-20T07:48:21;2.77;;;2.20;;
11537;SDS011;50159;49.426;11.182;2023-07-20T07:50:48;2.43;;;2.30;;
11537;SDS011;50159;49.426;11.182;2023-07-20T07:53:16;2.20;;;2.10;;
11537;SDS011;50159;49.426;11.182;2023-07-20T07:55:43;2.40;;;2.20;;
11537;SDS011;50159;49.426;11.182;2023-07-20T07:58:10;2.40;;;2.30;;
11537;SDS011;50159;49.426;11.182;2023-07-20T08:00:37;3.00;;;2.70;;
11537;SDS011;50159;49.426;11.182;2023-07-20T08:03:05;4.03;;;2.70;;
11537;SDS011;50159;49.426;11.182;2023-07-20T08:05:33;2.40;;;2.30;;
11537;SDS011;50159;49.426;11.182;2023-07-20T08:08:01;2.23;;;2.00;;
11537;SDS011;50159;49.426;11.182;2023-07-20T08:10:32;6.27;;;2.67;;
11537;SDS011;50159;49.426;11.182;2023-07-20T08:12:59;2.53;;;2.33;;
11537;SDS011;50159;49.426;11.182;2023-07-20T08:15:26;2.10;;;2.00;;
11537;SDS011;50159;49.426;11.182;2023-07-20T08:17:52;2.40;;;2.20;;
11537;SDS011;50159;49.426;11.182;2023-07-20T08:20:20;1.70;;;1.70;;
11537;SDS011;50159;49.426;11.182;2023-07-20T08:22:54;2.30;;;2.10;;
11537;SDS011;50159;49.426;11.182;2023-07-20T08:25:21;4.07;;;2.47;;
11537;SDS011;50159;49.426;11.182;2023-07-20T08:27:48;2.07;;;1.97;;
11537;SDS011;50159;49.426;11.182;2023-07-20T08:30:15;2.30;;;2.20;;
11537;SDS011;50159;49.426;11.182;2023-07-20T08:32:42;1.97;;;1.87;;
11537;SDS011;50159;49.426;11.182;2023-07-20T08:35:09;2.17;;;1.83;;
11537;SDS011;50159;49.426;11.182;2023-07-20T08:37:36;4.83;;;2.23;;
11537;SDS011;50159;49.426;11.182;2023-07-20T08:40:03;3.37;;;2.40;;
11537;SDS011;50159;49.426;11.182;2023-07-20T08:42:30;3.13;;;2.37;;
11537;SDS011;50159;49.426;11.182;2023-07-20T08:44:57;2.63;;;2.03;;
11537;SDS011;50159;49.426;11.182;2023-07-20T08:47:26;2.43;;;2.27;;
11537;SDS011;50159;49.426;11.182;2023-07-20T08:49:53;1.70;;;1.70;;
11537;SDS011;50159;49.426;11.182;2023-07-20T08:52:21;1.87;;;1.77;;
11537;SDS011;50159;49.426;11.182;2023-07-20T08:54:48;2.17;;;2.07;;
11537;SDS011;50159;49.426;11.182;2023-07-20T08:57:16;2.40;;;1.97;;
11537;SDS011;50159;49.426;11.182;2023-07-20T08:59:44;1.70;;;1.60;;
11537;SDS011;50159;49.426;11.182;2023-07-20T09:02:12;1.93;;;1.83;;
11537;SDS011;50159;49.426;11.182;2023-07-20T09:04:45;7.37;;;1.83;;
11537;SDS011;50159;49.426;11.182;2023-07-20T09:07:12;1.80;;;1.80;;
11537;SDS011;50159;49.426;11.182;2023-07-20T09:09:41;2.20;;;1.60;;
11537;SDS011;50159;49.426;11.182;2023-07-20T09:12:14;1.90;;;1.80;;
11537;SDS011;50159;49.426;11.182;2023-07-20T09:14:45;1.93;;;1.70;;
11537;SDS011;50159;49.426;11.182;2023-07-20T09:17:12;2.20;;;2.03;;
11537;SDS011;50159;49.426;11.182;2023-07-20T09:19:46;2.60;;;1.80;;
11537;SDS011;50159;49.426;11.182;2023-07-20T09:22:14;1.87;;;1.77;;
11537;SDS011;50159;49.426;11.182;2023-07-20T09:24:41;2.93;;;1.50;;
11537;SDS011;50159;49.426;11.182;2023-07-20T09:27:10;2.03;;;1.80;;
11537;SDS011;50159;49.426;11.182;2023-07-20T09:29:47;1.70;;;1.60;;
11537;SDS011;50159;49.426;11.182;2023-07-20T09:32:18;3.10;;;2.00;;
11537;SDS011;50159;49.426;11.182;2023-07-20T09:34:49;1.87;;;1.77;;
11537;SDS011;50159;49.426;11.182;2023-07-20T09:37:21;4.53;;;1.90;;
11537;SDS011;50159;49.426;11.182;2023-07-20T09:39:53;1.80;;;1.70;;
11537;SDS011;50159;49.426;11.182;2023-07-20T09:42:23;1.60;;;1.50;;
11537;SDS011;50159;49.426;11.182;2023-07-20T09:44:54;2.10;;;1.60;;
11537;SDS011;50159;49.426;11.182;2023-07-20T09:47:23;1.73;;;1.63;;
11537;SDS011;50159;49.426;11.182;2023-07-20T09:49:58;1.87;;;1.77;;
11537;SDS011;50159;49.426;11.182;2023-07-20T09:52:32;1.67;;;1.57;;
11537;SDS011;50159;49.426;11.182;2023-07-20T09:55:04;1.90;;;1.80;;
11537;SDS011;50159;49.426;11.182;2023-07-20T09:57:35;1.50;;;1.50;;
11537;SDS011;50159;49.426;11.182;2023-07-20T10:00:06;1.63;;;1.63;;
11537;SDS011;50159;49.426;11.182;2023-07-20T10:02:45;1.77;;;1.67;;
11537;SDS011;50159;49.426;11.182;2023-07-20T10:05:13;2.63;;;1.80;;
11537;SDS011;50159;49.426;11.182;2023-07-20T10:07:46;1.47;;;1.47;;
11537;SDS011;50159;49.426;11.182;2023-07-20T10:10:15;6.20;;;1.40;;
11537;SDS011;50159;49.426;11.182;2023-07-20T10:12:44;1.87;;;1.77;;
11537;SDS011;50159;49.426;11.182;2023-07-20T10:15:25;1.60;;;1.57;;
11537;SDS011;50159;49.426;11.182;2023-07-20T10:18:09;1.57;;;1.50;;
11537;SDS011;50159;49.426;11.182;2023-07-20T10:20:43;1.30;;;1.30;;
11537;SDS011;50159;49.426;11.182;2023-07-20T10:23:15;1.60;;;1.50;;
11537;SDS011;50159;49.426;11.182;2023-07-20T10:25:42;1.43;;;1.43;;
11537;SDS011;50159;49.426;11.182;2023-07-20T10:28:12;1.67;;;1.57;;
11537;SDS011;50159;49.426;11.182;2023-07-20T10:30:40;1.63;;;1.53;;
11537;SDS011;50159;49.426;11.182;2023-07-20T10:33:08;1.47;;;1.37;;
11537;SDS011;50159;49.426;11.182;2023-07-20T10:35:55;1.20;;;1.20;;
11537;SDS011;50159;49.426;11.182;2023-07-20T10:38:38;1.47;;;1.30;;
11537;SDS011;50159;49.426;11.182;2023-07-20T10:41:37;1.20;;;1.20;;
11537;SDS011;50159;49.426;11.182;2023-07-20T10:44:15;1.40;;;1.23;;
11537;SDS011;50159;49.426;11.182;2023-07-20T10:46:49;1.47;;;1.47;;
11537;SDS011;50159;49.426;11.182;2023-07-20T10:49:16;1.60;;;1.50;;
11537;SDS011;50159;49.426;11.182;2023-07-20T10:51:43;1.30;;;1.30;;
11537;SDS011;50159;49.426;11.182;2023-07-20T10:56:44;2.90;;;1.80;;
11537;SDS011;50159;49.426;11.182;2023-07-20T10:59:17;1.67;;;1.53;;
11537;SDS011;50159;49.426;11.182;2023-07-20T11:01:54;1.40;;;1.40;;
11537;SDS011;50159;49.426;11.182;2023-07-20T11:04:41;3.90;;;1.50;;
11537;SDS011;50159;49.426;11.182;2023-07-20T11:07:16;1.57;;;1.47;;
11537;SDS011;50159;49.426;11.182;2023-07-20T11:10:13;1.53;;;1.43;;
11537;SDS011;50159;49.426;11.182;2023-07-20T11:18:26;1.50;;;1.40;;
11537;SDS011;50159;49.426;11.182;2023-07-20T11:20:53;1.10;;;1.10;;
11537;SDS011;50159;49.426;11.182;2023-07-20T11:23:20;1.00;;;1.00;;
11537;SDS011;50159;49.426;11.182;2023-07-20T11:25:48;1.00;;;1.00;;
11537;SDS011;50159;49.426;11.182;2023-07-20T11:28:16;1.40;;;1.40;;
11537;SDS011;50159;49.426;11.182;2023-07-20T11:30:43;1.20;;;1.20;;
11537;SDS011;50159;49.426;11.182;2023-07-20T11:33:10;1.40;;;1.40;;
11537;SDS011;50159;49.426;11.182;2023-07-20T11:35:43;1.83;;;1.53;;
11537;SDS011;50159;49.426;11.182;2023-07-20T11:38:13;1.57;;;1.57;;
11537;SDS011;50159;49.426;11.182;2023-07-20T11:40:44;1.40;;;1.40;;
11537;SDS011;50159;49.426;11.182;2023-07-20T11:43:14;1.50;;;1.40;;
11537;SDS011;50159;49.426;11.182;2023-07-20T11:45:45;1.23;;;1.13;;
11537;SDS011;50159;49.426;11.182;2023-07-20T11:48:15;1.43;;;1.33;;
11537;SDS011;50159;49.426;11.182;2023-07-20T11:50:43;1.27;;;1.27;;
11537;SDS011;50159;49.426;11.182;2023-07-20T11:53:10;1.50;;;1.40;;
11537;SDS011;50159;49.426;11.182;2023-07-20T11:55:38;1.13;;;1.13;;
11537;SDS011;50159;49.426;11.182;2023-07-20T11:58:07;1.20;;;1.20;;
11537;SDS011;50159;49.426;11.182;2023-07-20T12:00:36;1.30;;;1.30;;
11537;SDS011;50159;49.426;11.182;2023-07-20T12:03:06;1.30;;;1.30;;
11537;SDS011;50159;49.426;11.182;2023-07-20T12:05:34;1.47;;;1.30;;
11537;SDS011;50159;49.426;11.182;2023-07-20T12:08:13;1.37;;;1.27;;
11537;SDS011;50159;49.426;11.182;2023-07-20T12:10:40;1.83;;;1.30;;
11537;SDS011;50159;49.426;11.182;2023-07-20T12:13:10;1.43;;;1.33;;
11537;SDS011;50159;49.426;11.182;2023-07-20T12:15:38;1.30;;;1.20;;
11537;SDS011;50159;49.426;11.182;2023-07-20T12:18:05;1.40;;;1.30;;
11537;SDS011;50159;49.426;11.182;2023-07-20T12:20:32;1.30;;;1.30;;
11537;SDS011;50159;49.426;11.182;2023-07-20T12:23:07;1.40;;;1.30;;
11537;SDS011;50159;49.426;11.182;2023-07-20T12:25:42;1.27;;;1.17;;
11537;SDS011;50159;49.426;11.182;2023-07-20T12:28:13;1.20;;;1.20;;
11537;SDS011;50159;49.426;11.182;2023-07-20T12:30:45;1.20;;;1.20;;
11537;SDS011;50159;49.426;11.182;2023-07-20T12:33:14;1.40;;;1.30;;
11537;SDS011;50159;49.426;11.182;2023-07-20T12:35:42;1.10;;;1.10;;
11537;SDS011;50159;49.426;11.182;2023-07-20T12:38:09;1.27;;;1.27;;
11537;SDS011;50159;49.426;11.182;2023-07-20T12:40:36;1.43;;;1.00;;
11537;SDS011;50159;49.426;11.182;2023-07-20T12:43:03;1.27;;;1.13;;
11537;SDS011;50159;49.426;11.182;2023-07-20T12:45:31;1.77;;;1.40;;
11537;SDS011;50159;49.426;11.182;2023-07-20T12:47:57;1.40;;;1.40;;
11537;SDS011;50159;49.426;11.182;2023-07-20T12:50:26;1.37;;;1.27;;
11537;SDS011;50159;49.426;11.182;2023-07-20T12:52:53;1.67;;;1.30;;
11537;SDS011;50159;49.426;11.182;2023-07-20T12:55:20;1.10;;;1.10;;
11537;SDS011;50159;49.426;11.182;2023-07-20T12:57:47;1.10;;;1.10;;
11537;SDS011;50159;49.426;11.182;2023-07-20T13:00:14;1.10;;;1.10;;
11537;SDS011;50159;49.426;11.182;2023-07-20T13:02:42;1.63;;;1.10;;
11537;SDS011;50159;49.426;11.182;2023-07-20T13:05:09;0.97;;;0.97;;
11537;SDS011;50159;49.426;11.182;2023-07-20T13:07:37;1.50;;;0.93;;
11537;SDS011;50159;49.426;11.182;2023-07-20T13:10:08;1.33;;;1.23;;
11537;SDS011;50159;49.426;11.182;2023-07-20T13:12:37;1.00;;;1.00;;
11537;SDS011;50159;49.426;11.182;2023-07-20T13:15:05;1.03;;;1.03;;
11537;SDS011;50159;49.426;11.182;2023-07-20T13:17:35;1.07;;;1.07;;
11537;SDS011;50159;49.426;11.182;2023-07-20T13:20:06;1.30;;;1.30;;
11537;SDS011;50159;49.426;11.182;2023-07-20T13:22:36;1.67;;;1.27;;
11537;SDS011;50159;49.426;11.182;2023-07-20T13:25:04;2.73;;;1.17;;
11537;SDS011;50159;49.426;11.182;2023-07-20T13:27:33;1.40;;;1.30;;
11537;SDS011;50159;49.426;11.182;2023-07-20T13:30:00;1.50;;;1.33;;
11537;SDS011;50159;49.426;11.182;2023-07-20T13:32:32;1.77;;;1.63;;
11537;SDS011;50159;49.426;11.182;2023-07-20T13:35:00;0.90;;;0.90;;
11537;SDS011;50159;49.426;11.182;2023-07-20T13:37:28;1.17;;;1.17;;
11537;SDS011;50159;49.426;11.182;2023-07-20T13:39:54;1.13;;;1.13;;
11537;SDS011;50159;49.426;11.182;2023-07-20T13:42:23;2.50;;;1.57;;
11537;SDS011;50159;49.426;11.182;2023-07-20T13:44:50;1.00;;;1.00;;
11537;SDS011;50159;49.426;11.182;2023-07-20T13:47:17;1.30;;;1.20;;
11537;SDS011;50159;49.426;11.182;2023-07-20T13:49:47;2.20;;;1.20;;
11537;SDS011;50159;49.426;11.182;2023-07-20T13:52:28;3.00;;;1.20;;
11537;SDS011;50159;49.426;11.182;2023-07-20T13:54:58;1.00;;;1.00;;
11537;SDS011;50159;49.426;11.182;2023-07-20T13:57:26;1.13;;;1.13;;
11537;SDS011;50159;49.426;11.182;2023-07-20T13:59:53;1.40;;;1.30;;
11537;SDS011;50159;49.426;11.182;2023-07-20T14:02:20;1.23;;;1.23;;
11537;SDS011;50159;49.426;11.182;2023-07-20T14:04:50;1.20;;;1.20;;
11537;SDS011;50159;49.426;11.182;2023-07-20T14:07:36;2.67;;;1.30;;
11537;SDS011;50159;49.426;11.182;2023-07-20T14:10:03;2.70;;;1.63;;
11537;SDS011;50159;49.426;11.182;2023-07-20T14:12:34;1.20;;;1.20;;
11537;SDS011;50159;49.426;11.182;2023-07-20T14:15:01;1.40;;;1.40;;
11537;SDS011;50159;49.426;11.182;2023-07-20T14:17:28;1.50;;;1.40;;
11537;SDS011;50159;49.426;11.182;2023-07-20T14:19:56;1.20;;;1.20;;
11537;SDS011;50159;49.426;11.182;2023-07-20T14:22:23;1.10;;;1.10;;
11537;SDS011;50159;49.426;11.182;2023-07-20T14:24:50;1.10;;;1.10;;
11537;SDS011;50159;49.426;11.182;2023-07-20T14:27:16;1.90;;;1.40;;
11537;SDS011;50159;49.426;11.182;2023-07-20T14:29:43;1.10;;;1.10;;
11537;SDS011;50159;49.426;11.182;2023-07-20T14:32:10;2.30;;;1.23;;
11537;SDS011;50159;49.426;11.182;2023-07-20T14:34:37;1.20;;;1.20;;
11537;SDS011;50159;49.426;11.182;2023-07-20T14:37:05;1.30;;;1.30;;
11537;SDS011;50159;49.426;11.182;2023-07-20T14:39:33;1.07;;;1.07;;
11537;SDS011;50159;49.426;11.182;2023-07-20T14:41:59;1.37;;;1.27;;
11537;SDS011;50159;49.426;11.182;2023-07-20T14:44:26;1.40;;;1.30;;
11537;SDS011;50159;49.426;11.182;2023-07-20T14:46:53;1.17;;;1.17;;
11537;SDS011;50159;49.426;11.182;2023-07-20T14:49:39;1.17;;;1.17;;
11537;SDS011;50159;49.426;11.182;2023-07-20T14:52:06;1.20;;;1.20;;
11537;SDS011;50159;49.426;11.182;2023-07-20T14:54:41;1.00;;;1.00;;
11537;SDS011;50159;49.426;11.182;2023-07-20T14:57:08;1.23;;;1.20;;
11537;SDS011;50159;49.426;11.182;2023-07-20T14:59:40;0.93;;;0.93;;